Mee Memorial Hospital (09CA)
King City, CA
Field Elevation: 334
Lat: 36°12.33N  Long: 121°07.95W
CTAF/Unicom Freq: 120.8000
   
     For Weather-by-Phone, call 831-386-7456
Weather Advisories
2019-07-21   03:18 Z
Altimeter 29.87" Hg
Wind 350° @ 14 KT
Gusts 19 KT
Visibility 10 SM
Ceiling CLR
Temperature 18° C (64° F)
Dewpoint 13° C (55° F)
Relative Humidity 69%
Density Altitude --
Condensation Altitude 3,100 feet
Wind and Runways
Indicated Runway = 27
Headwind = 2 kt
Crosswind = 14 kt
History
 
 
 
More Info
NOAA Forecast
 
 
About Us
Belfort Instrument
 
 
FAA Disclaimer: The data displayed is for advisory purposes only and is not to be used for flight planning or operations. For official data, please call 831-386-7456 to hear the current automated AWOS voice message.
  METAR 09CA 210318Z AUTO 35014G19KT 10 SM CLR 18/13 A2987